sensor_id;sensor_type;location;lat;lon;timestamp;temperature;humidity
3504;DHT22;1766;53.490;10.174;2023-02-28T00:01:59;10.30;34.30
3504;DHT22;1766;53.490;10.174;2023-02-28T00:04:01;10.30;34.30
3504;DHT22;1766;53.490;10.174;2023-02-28T00:06:03;10.30;34.30
3504;DHT22;1766;53.490;10.174;2023-02-28T00:08:06;10.20;34.30
3504;DHT22;1766;53.490;10.174;2023-02-28T00:10:10;10.20;34.20
3504;DHT22;1766;53.490;10.174;2023-02-28T00:12:20;10.20;34.20
3504;DHT22;1766;53.490;10.174;2023-02-28T00:14:22;10.30;34.40
3504;DHT22;1766;53.490;10.174;2023-02-28T00:16:24;10.10;34.20
3504;DHT22;1766;53.490;10.174;2023-02-28T00:18:26;10.00;34.20
3504;DHT22;1766;53.490;10.174;2023-02-28T00:20:27;9.90;35.00
3504;DHT22;1766;53.490;10.174;2023-02-28T00:22:30;9.90;35.10
3504;DHT22;1766;53.490;10.174;2023-02-28T00:24:32;9.80;35.00
3504;DHT22;1766;53.490;10.174;2023-02-28T00:26:33;9.70;35.00
3504;DHT22;1766;53.490;10.174;2023-02-28T00:28:37;9.60;35.00
3504;DHT22;1766;53.490;10.174;2023-02-28T00:30:39;9.60;34.90
3504;DHT22;1766;53.490;10.174;2023-02-28T00:32:41;9.50;34.90
3504;DHT22;1766;53.490;10.174;2023-02-28T00:34:43;9.50;34.90
3504;DHT22;1766;53.490;10.174;2023-02-28T00:36:45;9.40;34.70
3504;DHT22;1766;53.490;10.174;2023-02-28T00:38:50;9.40;34.80
3504;DHT22;1766;53.490;10.174;2023-02-28T00:40:51;9.30;34.70
3504;DHT22;1766;53.490;10.174;2023-02-28T00:42:53;9.30;34.80
3504;DHT22;1766;53.490;10.174;2023-02-28T00:44:56;9.20;34.80
3504;DHT22;1766;53.490;10.174;2023-02-28T00:46:59;9.10;34.80
3504;DHT22;1766;53.490;10.174;2023-02-28T00:49:01;9.10;34.90
3504;DHT22;1766;53.490;10.174;2023-02-28T00:51:03;9.00;35.40
3504;DHT22;1766;53.490;10.174;2023-02-28T00:53:05;8.90;34.90
3504;DHT22;1766;53.490;10.174;2023-02-28T00:55:08;8.80;35.00
3504;DHT22;1766;53.490;10.174;2023-02-28T00:57:20;8.80;35.20
3504;DHT22;1766;53.490;10.174;2023-02-28T00:59:22;8.70;35.00
3504;DHT22;1766;53.490;10.174;2023-02-28T01:01:25;8.70;35.10
3504;DHT22;1766;53.490;10.174;2023-02-28T01:03:27;8.60;35.10
3504;DHT22;1766;53.490;10.174;2023-02-28T01:05:28;8.60;35.20
3504;DHT22;1766;53.490;10.174;2023-02-28T01:07:30;8.60;35.30
3504;DHT22;1766;53.490;10.174;2023-02-28T01:09:32;8.60;35.40
3504;DHT22;1766;53.490;10.174;2023-02-28T01:11:34;8.50;35.40
3504;DHT22;1766;53.490;10.174;2023-02-28T01:13:36;8.40;35.40
3504;DHT22;1766;53.490;10.174;2023-02-28T01:15:41;8.40;35.50
3504;DHT22;1766;53.490;10.174;2023-02-28T01:17:46;8.30;35.40
3504;DHT22;1766;53.490;10.174;2023-02-28T01:19:47;8.30;35.30
3504;DHT22;1766;53.490;10.174;2023-02-28T01:21:49;8.30;35.30
3504;DHT22;1766;53.490;10.174;2023-02-28T01:23:51;8.30;35.40
3504;DHT22;1766;53.490;10.174;2023-02-28T01:25:53;8.10;35.40
3504;DHT22;1766;53.490;10.174;2023-02-28T01:27:55;8.20;35.40
3504;DHT22;1766;53.490;10.174;2023-02-28T01:29:57;8.20;35.60
3504;DHT22;1766;53.490;10.174;2023-02-28T01:31:59;8.20;35.60
3504;DHT22;1766;53.490;10.174;2023-02-28T01:34:03;8.20;35.60
3504;DHT22;1766;53.490;10.174;2023-02-28T01:36:07;8.10;35.60
3504;DHT22;1766;53.490;10.174;2023-02-28T01:38:11;8.00;35.60
3504;DHT22;1766;53.490;10.174;2023-02-28T01:40:13;8.10;35.60
3504;DHT22;1766;53.490;10.174;2023-02-28T01:42:21;8.00;35.70
3504;DHT22;1766;53.490;10.174;2023-02-28T01:46:57;7.90;35.80
3504;DHT22;1766;53.490;10.174;2023-02-28T01:49:05;8.00;35.70
3504;DHT22;1766;53.490;10.174;2023-02-28T01:51:11;7.90;35.90
3504;DHT22;1766;53.490;10.174;2023-02-28T01:53:18;7.90;35.90
3504;DHT22;1766;53.490;10.174;2023-02-28T01:55:22;7.80;35.80
3504;DHT22;1766;53.490;10.174;2023-02-28T01:57:30;7.80;35.90
3504;DHT22;1766;53.490;10.174;2023-02-28T01:59:40;7.80;36.00
3504;DHT22;1766;53.490;10.174;2023-02-28T02:01:46;7.70;35.90
3504;DHT22;1766;53.490;10.174;2023-02-28T02:03:48;7.70;35.90
3504;DHT22;1766;53.490;10.174;2023-02-28T02:05:56;7.70;35.90
3504;DHT22;1766;53.490;10.174;2023-02-28T02:08:03;7.70;35.90
3504;DHT22;1766;53.490;10.174;2023-02-28T02:10:13;7.80;36.10
3504;DHT22;1766;53.490;10.174;2023-02-28T02:12:27;7.70;36.00
3504;DHT22;1766;53.490;10.174;2023-02-28T02:14:43;7.60;36.00
3504;DHT22;1766;53.490;10.174;2023-02-28T02:16:59;7.60;36.10
3504;DHT22;1766;53.490;10.174;2023-02-28T02:19:19;7.60;36.10
3504;DHT22;1766;53.490;10.174;2023-02-28T02:21:52;7.40;36.00
3504;DHT22;1766;53.490;10.174;2023-02-28T02:26:58;7.40;36.10
3504;DHT22;1766;53.490;10.174;2023-02-28T02:29:28;7.40;36.10
3504;DHT22;1766;53.490;10.174;2023-02-28T02:31:56;7.30;36.10
3504;DHT22;1766;53.490;10.174;2023-02-28T02:34:26;7.30;36.20
3504;DHT22;1766;53.490;10.174;2023-02-28T02:36:36;7.30;36.20
3504;DHT22;1766;53.490;10.174;2023-02-28T02:38:45;7.30;36.20
3504;DHT22;1766;53.490;10.174;2023-02-28T02:40:58;7.30;36.20
3504;DHT22;1766;53.490;10.174;2023-02-28T02:43:13;7.20;36.60
3504;DHT22;1766;53.490;10.174;2023-02-28T02:45:21;7.20;36.10
3504;DHT22;1766;53.490;10.174;2023-02-28T02:47:29;7.20;36.20
3504;DHT22;1766;53.490;10.174;2023-02-28T02:49:36;7.20;36.20
3504;DHT22;1766;53.490;10.174;2023-02-28T02:51:40;7.20;36.30
3504;DHT22;1766;53.490;10.174;2023-02-28T02:53:48;7.10;36.20
3504;DHT22;1766;53.490;10.174;2023-02-28T02:55:52;7.10;36.30
3504;DHT22;1766;53.490;10.174;2023-02-28T02:57:59;7.10;36.40
3504;DHT22;1766;53.490;10.174;2023-02-28T03:02:12;7.80;37.10
3504;DHT22;1766;53.490;10.174;2023-02-28T03:04:20;6.90;36.50
3504;DHT22;1766;53.490;10.174;2023-02-28T03:06:24;6.90;36.50
3504;DHT22;1766;53.490;10.174;2023-02-28T03:08:27;6.90;36.50
3504;DHT22;1766;53.490;10.174;2023-02-28T03:10:34;6.90;36.60
3504;DHT22;1766;53.490;10.174;2023-02-28T03:12:41;6.90;36.60
3504;DHT22;1766;53.490;10.174;2023-02-28T03:14:56;6.90;36.60
3504;DHT22;1766;53.490;10.174;2023-02-28T03:17:16;6.90;36.70
3504;DHT22;1766;53.490;10.174;2023-02-28T03:19:33;6.80;36.70
3504;DHT22;1766;53.490;10.174;2023-02-28T03:21:46;6.80;36.70
3504;DHT22;1766;53.490;10.174;2023-02-28T03:23:59;6.80;36.70
3504;DHT22;1766;53.490;10.174;2023-02-28T03:26:12;6.70;36.80
3504;DHT22;1766;53.490;10.174;2023-02-28T03:28:19;6.70;37.00
3504;DHT22;1766;53.490;10.174;2023-02-28T03:30:35;6.70;37.00
3504;DHT22;1766;53.490;10.174;2023-02-28T03:32:44;6.70;37.00
3504;DHT22;1766;53.490;10.174;2023-02-28T03:35:01;6.70;37.00
3504;DHT22;1766;53.490;10.174;2023-02-28T03:37:14;6.60;36.80
3504;DHT22;1766;53.490;10.174;2023-02-28T03:39:20;6.60;36.80
3504;DHT22;1766;53.490;10.174;2023-02-28T03:41:31;6.60;36.90
3504;DHT22;1766;53.490;10.174;2023-02-28T03:43:37;6.60;37.00
3504;DHT22;1766;53.490;10.174;2023-02-28T03:45:41;6.50;37.00
3504;DHT22;1766;53.490;10.174;2023-02-28T03:47:51;6.50;37.10
3504;DHT22;1766;53.490;10.174;2023-02-28T03:49:57;6.50;37.10
3504;DHT22;1766;53.490;10.174;2023-02-28T03:52:02;6.50;37.10
3504;DHT22;1766;53.490;10.174;2023-02-28T03:54:09;6.50;37.20
3504;DHT22;1766;53.490;10.174;2023-02-28T03:56:17;6.50;37.20
3504;DHT22;1766;53.490;10.174;2023-02-28T03:58:24;6.50;37.20
3504;DHT22;1766;53.490;10.174;2023-02-28T04:00:32;6.40;37.30
3504;DHT22;1766;53.490;10.174;2023-02-28T04:02:36;6.40;37.30
3504;DHT22;1766;53.490;10.174;2023-02-28T04:04:38;6.30;37.10
3504;DHT22;1766;53.490;10.174;2023-02-28T04:06:49;6.40;37.20
3504;DHT22;1766;53.490;10.174;2023-02-28T04:08:52;6.40;37.30
3504;DHT22;1766;53.490;10.174;2023-02-28T04:11:03;6.40;37.20
3504;DHT22;1766;53.490;10.174;2023-02-28T04:13:06;6.40;37.90
3504;DHT22;1766;53.490;10.174;2023-02-28T04:15:08;6.30;37.20
3504;DHT22;1766;53.490;10.174;2023-02-28T04:17:11;6.30;37.40
3504;DHT22;1766;53.490;10.174;2023-02-28T04:19:13;6.30;37.40
3504;DHT22;1766;53.490;10.174;2023-02-28T04:21:15;6.30;37.60
3504;DHT22;1766;53.490;10.174;2023-02-28T04:23:21;6.30;37.70
3504;DHT22;1766;53.490;10.174;2023-02-28T04:25:22;6.20;37.60
3504;DHT22;1766;53.490;10.174;2023-02-28T04:27:27;6.20;37.70
3504;DHT22;1766;53.490;10.174;2023-02-28T04:29:31;6.20;37.70
3504;DHT22;1766;53.490;10.174;2023-02-28T04:31:33;6.10;37.70
3504;DHT22;1766;53.490;10.174;2023-02-28T04:33:35;5.70;37.40
3504;DHT22;1766;53.490;10.174;2023-02-28T04:35:37;6.20;37.70
3504;DHT22;1766;53.490;10.174;2023-02-28T04:37:39;6.20;37.80
3504;DHT22;1766;53.490;10.174;2023-02-28T04:39:41;6.20;37.90
3504;DHT22;1766;53.490;10.174;2023-02-28T04:41:44;6.10;38.00
3504;DHT22;1766;53.490;10.174;2023-02-28T04:43:47;6.10;37.90
3504;DHT22;1766;53.490;10.174;2023-02-28T04:45:49;6.10;38.00
3504;DHT22;1766;53.490;10.174;2023-02-28T04:47:50;6.10;38.10
3504;DHT22;1766;53.490;10.174;2023-02-28T04:49:54;6.10;38.10
3504;DHT22;1766;53.490;10.174;2023-02-28T04:51:55;6.00;38.00
3504;DHT22;1766;53.490;10.174;2023-02-28T04:53:57;6.00;38.10
3504;DHT22;1766;53.490;10.174;2023-02-28T04:55:59;6.00;38.20
3504;DHT22;1766;53.490;10.174;2023-02-28T04:58:01;6.00;38.20
3504;DHT22;1766;53.490;10.174;2023-02-28T05:00:05;6.00;38.20
3504;DHT22;1766;53.490;10.174;2023-02-28T05:02:11;6.00;38.30
3504;DHT22;1766;53.490;10.174;2023-02-28T05:04:13;6.10;38.20
3504;DHT22;1766;53.490;10.174;2023-02-28T05:06:15;6.00;38.20
3504;DHT22;1766;53.490;10.174;2023-02-28T05:08:17;6.00;38.20
3504;DHT22;1766;53.490;10.174;2023-02-28T05:10:19;6.00;38.20
3504;DHT22;1766;53.490;10.174;2023-02-28T05:12:21;6.00;38.20
3504;DHT22;1766;53.490;10.174;2023-02-28T05:14:23;6.00;38.20
3504;DHT22;1766;53.490;10.174;2023-02-28T05:16:27;5.90;38.20
3504;DHT22;1766;53.490;10.174;2023-02-28T05:18:28;5.90;38.30
3504;DHT22;1766;53.490;10.174;2023-02-28T05:20:30;5.90;38.30
3504;DHT22;1766;53.490;10.174;2023-02-28T05:22:32;5.90;38.30
3504;DHT22;1766;53.490;10.174;2023-02-28T05:24:34;5.90;38.30
3504;DHT22;1766;53.490;10.174;2023-02-28T05:26:38;5.80;38.20
3504;DHT22;1766;53.490;10.174;2023-02-28T05:28:40;5.80;38.30
3504;DHT22;1766;53.490;10.174;2023-02-28T05:30:42;5.80;38.30
3504;DHT22;1766;53.490;10.174;2023-02-28T05:32:50;5.80;38.30
3504;DHT22;1766;53.490;10.174;2023-02-28T05:34:52;5.70;38.50
3504;DHT22;1766;53.490;10.174;2023-02-28T05:36:54;5.60;38.50
3504;DHT22;1766;53.490;10.174;2023-02-28T05:38:56;5.60;38.50
3504;DHT22;1766;53.490;10.174;2023-02-28T05:40:58;5.70;38.70
3504;DHT22;1766;53.490;10.174;2023-02-28T05:43:00;5.70;38.80
3504;DHT22;1766;53.490;10.174;2023-02-28T05:45:02;5.70;38.90
3504;DHT22;1766;53.490;10.174;2023-02-28T05:47:04;5.60;38.80
3504;DHT22;1766;53.490;10.174;2023-02-28T05:49:08;5.60;38.80
3504;DHT22;1766;53.490;10.174;2023-02-28T05:51:10;5.60;38.90
3504;DHT22;1766;53.490;10.174;2023-02-28T05:53:12;5.60;38.80
3504;DHT22;1766;53.490;10.174;2023-02-28T05:55:14;5.70;38.80
3504;DHT22;1766;53.490;10.174;2023-02-28T05:57:16;5.60;38.80
3504;DHT22;1766;53.490;10.174;2023-02-28T05:59:18;5.60;38.70
3504;DHT22;1766;53.490;10.174;2023-02-28T06:01:23;5.60;38.80
3504;DHT22;1766;53.490;10.174;2023-02-28T06:03:27;5.60;39.00
3504;DHT22;1766;53.490;10.174;2023-02-28T06:05:30;5.60;39.10
3504;DHT22;1766;53.490;10.174;2023-02-28T06:07:32;5.50;39.00
3504;DHT22;1766;53.490;10.174;2023-02-28T06:09:34;5.60;39.10
3504;DHT22;1766;53.490;10.174;2023-02-28T06:11:36;5.60;39.10
3504;DHT22;1766;53.490;10.174;2023-02-28T06:13:38;5.50;38.80
3504;DHT22;1766;53.490;10.174;2023-02-28T06:15:40;5.50;38.90
3504;DHT22;1766;53.490;10.174;2023-02-28T06:17:43;5.50;39.00
3504;DHT22;1766;53.490;10.174;2023-02-28T06:19:45;5.50;39.10
3504;DHT22;1766;53.490;10.174;2023-02-28T06:21:50;5.50;39.10
3504;DHT22;1766;53.490;10.174;2023-02-28T06:23:53;5.50;39.20
3504;DHT22;1766;53.490;10.174;2023-02-28T06:25:55;5.40;39.20
3504;DHT22;1766;53.490;10.174;2023-02-28T06:27:58;5.40;39.30
3504;DHT22;1766;53.490;10.174;2023-02-28T06:30:00;5.40;39.20
3504;DHT22;1766;53.490;10.174;2023-02-28T06:32:02;5.40;39.30
3504;DHT22;1766;53.490;10.174;2023-02-28T06:34:04;5.40;39.40
3504;DHT22;1766;53.490;10.174;2023-02-28T06:36:07;5.40;39.40
3504;DHT22;1766;53.490;10.174;2023-02-28T06:38:11;5.40;39.40
3504;DHT22;1766;53.490;10.174;2023-02-28T06:40:13;5.40;39.30
3504;DHT22;1766;53.490;10.174;2023-02-28T06:42:15;5.50;39.40
3504;DHT22;1766;53.490;10.174;2023-02-28T06:44:18;5.50;39.40
3504;DHT22;1766;53.490;10.174;2023-02-28T06:46:20;5.50;39.40
3504;DHT22;1766;53.490;10.174;2023-02-28T06:48:22;5.50;39.60
3504;DHT22;1766;53.490;10.174;2023-02-28T06:50:25;5.50;39.60
3504;DHT22;1766;53.490;10.174;2023-02-28T06:52:28;5.50;40.10
3504;DHT22;1766;53.490;10.174;2023-02-28T06:54:32;5.50;39.80
3504;DHT22;1766;53.490;10.174;2023-02-28T06:56:34;5.50;39.80
3504;DHT22;1766;53.490;10.174;2023-02-28T06:58:36;5.60;40.00
3504;DHT22;1766;53.490;10.174;2023-02-28T07:00:39;5.60;40.00
3504;DHT22;1766;53.490;10.174;2023-02-28T07:02:41;5.10;39.60
3504;DHT22;1766;53.490;10.174;2023-02-28T07:04:43;5.70;40.00
3504;DHT22;1766;53.490;10.174;2023-02-28T07:06:45;5.70;40.00
3504;DHT22;1766;53.490;10.174;2023-02-28T07:08:47;5.70;40.00
3504;DHT22;1766;53.490;10.174;2023-02-28T07:10:53;5.70;40.20
3504;DHT22;1766;53.490;10.174;2023-02-28T07:12:55;5.70;40.20
3504;DHT22;1766;53.490;10.174;2023-02-28T07:14:56;5.80;40.20
3504;DHT22;1766;53.490;10.174;2023-02-28T07:16:58;5.80;40.20
3504;DHT22;1766;53.490;10.174;2023-02-28T07:19:00;5.80;40.20
3504;DHT22;1766;53.490;10.174;2023-02-28T07:21:03;5.90;40.40
3504;DHT22;1766;53.490;10.174;2023-02-28T07:23:05;5.90;40.60
3504;DHT22;1766;53.490;10.174;2023-02-28T07:25:08;6.00;40.50
3504;DHT22;1766;53.490;10.174;2023-02-28T07:27:12;6.00;40.70
3504;DHT22;1766;53.490;10.174;2023-02-28T07:29:26;6.00;40.60
3504;DHT22;1766;53.490;10.174;2023-02-28T07:31:28;6.10;40.70
3504;DHT22;1766;53.490;10.174;2023-02-28T07:33:30;6.00;40.50
3504;DHT22;1766;53.490;10.174;2023-02-28T07:35:32;6.00;40.60
3504;DHT22;1766;53.490;10.174;2023-02-28T07:37:34;6.20;40.80
3504;DHT22;1766;53.490;10.174;2023-02-28T07:39:37;6.20;40.80
3504;DHT22;1766;53.490;10.174;2023-02-28T07:41:38;6.30;41.10
3504;DHT22;1766;53.490;10.174;2023-02-28T07:43:45;6.30;41.00
3504;DHT22;1766;53.490;10.174;2023-02-28T07:45:47;6.40;41.10
3504;DHT22;1766;53.490;10.174;2023-02-28T07:47:49;6.50;41.20
3504;DHT22;1766;53.490;10.174;2023-02-28T07:49:51;6.50;41.10
3504;DHT22;1766;53.490;10.174;2023-02-28T07:51:53;6.50;41.20
3504;DHT22;1766;53.490;10.174;2023-02-28T07:53:54;6.60;41.30
3504;DHT22;1766;53.490;10.174;2023-02-28T07:55:57;6.60;41.30
3504;DHT22;1766;53.490;10.174;2023-02-28T07:58:01;6.70;41.50
3504;DHT22;1766;53.490;10.174;2023-02-28T08:00:06;6.70;41.30
3504;DHT22;1766;53.490;10.174;2023-02-28T08:02:12;6.70;41.60
3504;DHT22;1766;53.490;10.174;2023-02-28T08:04:14;6.80;41.70
3504;DHT22;1766;53.490;10.174;2023-02-28T08:06:18;6.90;41.70
3504;DHT22;1766;53.490;10.174;2023-02-28T08:08:21;6.90;41.70
3504;DHT22;1766;53.490;10.174;2023-02-28T08:10:23;7.00;41.70
3504;DHT22;1766;53.490;10.174;2023-02-28T08:12:25;6.90;41.70
3504;DHT22;1766;53.490;10.174;2023-02-28T08:14:27;7.10;41.90
3504;DHT22;1766;53.490;10.174;2023-02-28T08:16:30;7.10;41.80
3504;DHT22;1766;53.490;10.174;2023-02-28T08:18:32;7.20;41.90
3504;DHT22;1766;53.490;10.174;2023-02-28T08:20:34;7.20;41.80
3504;DHT22;1766;53.490;10.174;2023-02-28T08:22:36;7.40;42.00
3504;DHT22;1766;53.490;10.174;2023-02-28T08:24:39;7.40;42.00
3504;DHT22;1766;53.490;10.174;2023-02-28T08:26:42;7.40;42.10
3504;DHT22;1766;53.490;10.174;2023-02-28T08:28:44;7.50;42.00
3504;DHT22;1766;53.490;10.174;2023-02-28T08:30:46;7.60;42.20
3504;DHT22;1766;53.490;10.174;2023-02-28T08:32:50;7.60;42.00
3504;DHT22;1766;53.490;10.174;2023-02-28T08:34:52;7.60;42.00
3504;DHT22;1766;53.490;10.174;2023-02-28T08:36:54;7.70;42.10
3504;DHT22;1766;53.490;10.174;2023-02-28T08:38:56;7.70;42.20
3504;DHT22;1766;53.490;10.174;2023-02-28T08:41:01;7.80;42.40
3504;DHT22;1766;53.490;10.174;2023-02-28T08:43:03;7.80;42.60
3504;DHT22;1766;53.490;10.174;2023-02-28T08:45:06;7.90;42.50
3504;DHT22;1766;53.490;10.174;2023-02-28T08:47:08;8.00;42.60
3504;DHT22;1766;53.490;10.174;2023-02-28T08:49:16;8.00;42.40
3504;DHT22;1766;53.490;10.174;2023-02-28T08:51:20;8.00;42.40
3504;DHT22;1766;53.490;10.174;2023-02-28T08:53:26;8.10;42.70
3504;DHT22;1766;53.490;10.174;2023-02-28T08:55:28;8.10;42.50
3504;DHT22;1766;53.490;10.174;2023-02-28T08:57:30;8.20;42.70
3504;DHT22;1766;53.490;10.174;2023-02-28T08:59:32;8.30;42.80
3504;DHT22;1766;53.490;10.174;2023-02-28T09:01:34;8.40;43.00
3504;DHT22;1766;53.490;10.174;2023-02-28T09:03:37;8.40;42.80
3504;DHT22;1766;53.490;10.174;2023-02-28T09:05:40;8.50;43.00
3504;DHT22;1766;53.490;10.174;2023-02-28T09:07:42;8.70;43.00
3504;DHT22;1766;53.490;10.174;2023-02-28T09:09:43;8.70;42.90
3504;DHT22;1766;53.490;10.174;2023-02-28T09:11:55;8.80;42.90
3504;DHT22;1766;53.490;10.174;2023-02-28T09:13:58;8.90;42.80
3504;DHT22;1766;53.490;10.174;2023-02-28T09:16:02;8.90;42.90
3504;DHT22;1766;53.490;10.174;2023-02-28T09:18:05;8.90;42.90
3504;DHT22;1766;53.490;10.174;2023-02-28T09:20:08;9.00;42.80
3504;DHT22;1766;53.490;10.174;2023-02-28T09:22:12;9.10;42.90
3504;DHT22;1766;53.490;10.174;2023-02-28T09:24:15;9.10;42.70
3504;DHT22;1766;53.490;10.174;2023-02-28T09:26:18;9.20;42.70
3504;DHT22;1766;53.490;10.174;2023-02-28T09:28:22;9.20;42.70
3504;DHT22;1766;53.490;10.174;2023-02-28T09:30:24;9.30;42.60
3504;DHT22;1766;53.490;10.174;2023-02-28T09:32:26;9.40;42.60
3504;DHT22;1766;53.490;10.174;2023-02-28T09:34:28;9.40;42.50
3504;DHT22;1766;53.490;10.174;2023-02-28T09:36:31;9.50;42.50
3504;DHT22;1766;53.490;10.174;2023-02-28T09:38:35;9.50;42.40
3504;DHT22;1766;53.490;10.174;2023-02-28T09:40:40;9.60;42.40
3504;DHT22;1766;53.490;10.174;2023-02-28T09:42:51;9.70;42.50
3504;DHT22;1766;53.490;10.174;2023-02-28T09:44:55;9.80;42.40
3504;DHT22;1766;53.490;10.174;2023-02-28T09:47:01;9.80;42.20
3504;DHT22;1766;53.490;10.174;2023-02-28T09:49:12;9.90;42.20
3504;DHT22;1766;53.490;10.174;2023-02-28T09:51:28;10.00;41.10
3504;DHT22;1766;53.490;10.174;2023-02-28T09:53:37;10.00;41.00
3504;DHT22;1766;53.490;10.174;2023-02-28T09:55:43;10.20;40.70
3504;DHT22;1766;53.490;10.174;2023-02-28T09:57:47;10.20;40.60
3504;DHT22;1766;53.490;10.174;2023-02-28T09:59:59;10.30;40.50
3504;DHT22;1766;53.490;10.174;2023-02-28T10:02:21;10.30;40.40
3504;DHT22;1766;53.490;10.174;2023-02-28T10:04:42;10.40;40.20
3504;DHT22;1766;53.490;10.174;2023-02-28T10:06:48;10.50;40.00
3504;DHT22;1766;53.490;10.174;2023-02-28T10:08:58;10.60;39.90
3504;DHT22;1766;53.490;10.174;2023-02-28T10:11:06;10.60;39.60
3504;DHT22;1766;53.490;10.174;2023-02-28T10:13:17;10.70;39.30
3504;DHT22;1766;53.490;10.174;2023-02-28T10:15:24;10.80;39.00
3504;DHT22;1766;53.490;10.174;2023-02-28T10:17:36;10.90;38.70
3504;DHT22;1766;53.490;10.174;2023-02-28T10:19:44;10.90;38.50
3504;DHT22;1766;53.490;10.174;2023-02-28T10:21:54;11.00;38.20
3504;DHT22;1766;53.490;10.174;2023-02-28T10:24:03;11.00;37.90
3504;DHT22;1766;53.490;10.174;2023-02-28T10:26:12;11.00;37.60
3504;DHT22;1766;53.490;10.174;2023-02-28T10:28:17;11.10;37.50
3504;DHT22;1766;53.490;10.174;2023-02-28T10:30:19;11.20;37.10
3504;DHT22;1766;53.490;10.174;2023-02-28T10:32:24;11.20;36.90
3504;DHT22;1766;53.490;10.174;2023-02-28T10:34:28;11.30;36.80
3504;DHT22;1766;53.490;10.174;2023-02-28T10:36:30;11.30;36.50
3504;DHT22;1766;53.490;10.174;2023-02-28T10:38:33;11.40;36.30
3504;DHT22;1766;53.490;10.174;2023-02-28T10:40:37;11.40;36.70
3504;DHT22;1766;53.490;10.174;2023-02-28T10:42:39;11.60;36.00
3504;DHT22;1766;53.490;10.174;2023-02-28T10:44:40;11.60;35.70
3504;DHT22;1766;53.490;10.174;2023-02-28T10:46:43;11.70;35.40
3504;DHT22;1766;53.490;10.174;2023-02-28T10:48:47;11.70;35.20
3504;DHT22;1766;53.490;10.174;2023-02-28T10:51:03;11.80;35.10
3504;DHT22;1766;53.490;10.174;2023-02-28T10:53:25;11.90;35.00
3504;DHT22;1766;53.490;10.174;2023-02-28T10:55:32;11.80;34.60
3504;DHT22;1766;53.490;10.174;2023-02-28T10:57:35;12.00;34.50
3504;DHT22;1766;53.490;10.174;2023-02-28T10:59:37;12.10;34.40
3504;DHT22;1766;53.490;10.174;2023-02-28T11:01:41;12.10;34.10
3504;DHT22;1766;53.490;10.174;2023-02-28T11:03:46;12.10;34.00
3504;DHT22;1766;53.490;10.174;2023-02-28T11:05:48;12.20;33.80
3504;DHT22;1766;53.490;10.174;2023-02-28T11:07:51;12.20;33.60
3504;DHT22;1766;53.490;10.174;2023-02-28T11:09:55;12.30;33.50
3504;DHT22;1766;53.490;10.174;2023-02-28T11:11:59;12.20;33.10
3504;DHT22;1766;53.490;10.174;2023-02-28T11:14:05;12.30;32.90
3504;DHT22;1766;53.490;10.174;2023-02-28T11:16:09;12.30;32.50
3504;DHT22;1766;53.490;10.174;2023-02-28T11:18:22;12.30;32.40
3504;DHT22;1766;53.490;10.174;2023-02-28T11:20:28;12.40;32.40
3504;DHT22;1766;53.490;10.174;2023-02-28T11:22:33;12.40;32.30
3504;DHT22;1766;53.490;10.174;2023-02-28T11:24:42;12.60;32.40
3504;DHT22;1766;53.490;10.174;2023-02-28T11:26:47;12.60;31.90
3504;DHT22;1766;53.490;10.174;2023-02-28T11:29:08;12.60;31.90
3504;DHT22;1766;53.490;10.174;2023-02-28T11:31:18;12.70;31.80
3504;DHT22;1766;53.490;10.174;2023-02-28T11:33:25;12.80;31.60
3504;DHT22;1766;53.490;10.174;2023-02-28T11:35:31;12.80;31.60
3504;DHT22;1766;53.490;10.174;2023-02-28T11:37:35;12.80;31.60
3504;DHT22;1766;53.490;10.174;2023-02-28T11:39:37;13.00;31.60
3504;DHT22;1766;53.490;10.174;2023-02-28T11:41:53;13.00;31.80
3504;DHT22;1766;53.490;10.174;2023-02-28T11:44:15;13.30;32.60
3504;DHT22;1766;53.490;10.174;2023-02-28T11:46:27;15.10;33.00
3504;DHT22;1766;53.490;10.174;2023-02-28T11:48:39;17.70;31.50
3504;DHT22;1766;53.490;10.174;2023-02-28T11:50:53;20.20;29.60
3504;DHT22;1766;53.490;10.174;2023-02-28T11:53:01;22.30;28.10
3504;DHT22;1766;53.490;10.174;2023-02-28T11:55:14;24.00;26.70
3504;DHT22;1766;53.490;10.174;2023-02-28T11:57:31;25.40;25.60
3504;DHT22;1766;53.490;10.174;2023-02-28T11:59:51;26.50;24.60
3504;DHT22;1766;53.490;10.174;2023-02-28T12:02:08;27.40;23.50
3504;DHT22;1766;53.490;10.174;2023-02-28T12:04:26;27.70;22.80
3504;DHT22;1766;53.490;10.174;2023-02-28T12:06:40;27.70;22.00
3504;DHT22;1766;53.490;10.174;2023-02-28T12:08:55;27.50;21.90
3504;DHT22;1766;53.490;10.174;2023-02-28T12:11:09;27.70;21.60
3504;DHT22;1766;53.490;10.174;2023-02-28T12:13:20;27.90;21.20
3504;DHT22;1766;53.490;10.174;2023-02-28T12:18:13;27.80;20.50
3504;DHT22;1766;53.490;10.174;2023-02-28T12:20:27;27.70;20.30
3504;DHT22;1766;53.490;10.174;2023-02-28T12:22:39;27.60;20.40
3504;DHT22;1766;53.490;10.174;2023-02-28T12:25:03;27.50;20.20
3504;DHT22;1766;53.490;10.174;2023-02-28T12:27:23;27.20;20.00
3504;DHT22;1766;53.490;10.174;2023-02-28T12:29:28;27.00;20.20
3504;DHT22;1766;53.490;10.174;2023-02-28T12:31:36;26.60;20.20
3504;DHT22;1766;53.490;10.174;2023-02-28T12:33:43;26.40;20.10
3504;DHT22;1766;53.490;10.174;2023-02-28T12:35:51;25.90;20.00
3504;DHT22;1766;53.490;10.174;2023-02-28T12:37:58;25.70;20.00
3504;DHT22;1766;53.490;10.174;2023-02-28T12:40:06;25.30;20.10
3504;DHT22;1766;53.490;10.174;2023-02-28T12:42:19;25.10;20.30
3504;DHT22;1766;53.490;10.174;2023-02-28T12:44:30;25.00;20.30
3504;DHT22;1766;53.490;10.174;2023-02-28T12:46:38;25.10;20.20
3504;DHT22;1766;53.490;10.174;2023-02-28T12:48:46;25.20;20.00
3504;DHT22;1766;53.490;10.174;2023-02-28T12:50:49;25.40;19.70
3504;DHT22;1766;53.490;10.174;2023-02-28T12:52:55;25.70;19.50
3504;DHT22;1766;53.490;10.174;2023-02-28T12:55:05;26.00;19.40
3504;DHT22;1766;53.490;10.174;2023-02-28T12:57:15;26.20;19.10
3504;DHT22;1766;53.490;10.174;2023-02-28T12:59:25;26.40;18.90
3504;DHT22;1766;53.490;10.174;2023-02-28T13:01:42;26.50;18.60
3504;DHT22;1766;53.490;10.174;2023-02-28T13:04:08;26.60;18.40
3504;DHT22;1766;53.490;10.174;2023-02-28T13:06:34;26.60;18.10
3504;DHT22;1766;53.490;10.174;2023-02-28T13:09:02;26.60;18.10
3504;DHT22;1766;53.490;10.174;2023-02-28T13:11:06;26.80;17.80
3504;DHT22;1766;53.490;10.174;2023-02-28T13:13:14;27.00;17.90
3504;DHT22;1766;53.490;10.174;2023-02-28T13:15:20;26.70;18.00
3504;DHT22;1766;53.490;10.174;2023-02-28T13:17:26;26.40;17.60
3504;DHT22;1766;53.490;10.174;2023-02-28T13:19:33;26.00;17.60
3504;DHT22;1766;53.490;10.174;2023-02-28T13:21:43;25.50;17.50
3504;DHT22;1766;53.490;10.174;2023-02-28T13:24:01;25.00;17.70
3504;DHT22;1766;53.490;10.174;2023-02-28T13:26:04;24.60;17.70
3504;DHT22;1766;53.490;10.174;2023-02-28T13:28:10;24.40;17.80
3504;DHT22;1766;53.490;10.174;2023-02-28T13:33:20;23.80;18.00
3504;DHT22;1766;53.490;10.174;2023-02-28T13:35:43;23.60;18.10
3504;DHT22;1766;53.490;10.174;2023-02-28T13:37:48;23.70;18.30
3504;DHT22;1766;53.490;10.174;2023-02-28T13:39:53;23.80;18.40
3504;DHT22;1766;53.490;10.174;2023-02-28T13:41:56;23.70;18.40
3504;DHT22;1766;53.490;10.174;2023-02-28T13:44:00;23.70;18.40
3504;DHT22;1766;53.490;10.174;2023-02-28T13:46:10;23.60;18.40
3504;DHT22;1766;53.490;10.174;2023-02-28T13:48:19;23.60;18.30
3504;DHT22;1766;53.490;10.174;2023-02-28T13:50:34;23.80;18.40
3504;DHT22;1766;53.490;10.174;2023-02-28T13:52:44;24.40;18.50